createdAt,value
2024-01-11T00:00:56.009Z,0.00
2024-01-11T00:01:55.938Z,0.00
2024-01-11T00:02:55.959Z,0.00
2024-01-11T00:03:55.902Z,0.00
2024-01-11T00:04:55.962Z,0.00
2024-01-11T00:05:55.957Z,0.00
2024-01-11T00:06:55.984Z,0.00
2024-01-11T00:07:55.884Z,0.00
2024-01-11T00:08:55.881Z,0.00
2024-01-11T00:09:55.817Z,0.00
2024-01-11T00:10:57.309Z,0.00
2024-01-11T00:11:55.824Z,0.00
2024-01-11T00:12:55.806Z,0.00
2024-01-11T00:13:55.894Z,0.00
2024-01-11T00:14:55.798Z,0.00
2024-01-11T00:15:55.817Z,0.00
2024-01-11T00:16:55.774Z,0.00
2024-01-11T00:17:55.819Z,0.00
2024-01-11T00:18:55.747Z,0.00
2024-01-11T00:19:55.803Z,0.00
2024-01-11T00:20:55.685Z,0.00
2024-01-11T00:21:55.698Z,0.00
2024-01-11T00:22:55.734Z,0.00
2024-01-11T00:23:55.653Z,0.00
2024-01-11T00:24:55.658Z,0.00
2024-01-11T00:25:56.633Z,0.00
2024-01-11T00:26:55.693Z,0.00
2024-01-11T00:27:55.603Z,0.00
2024-01-11T00:28:55.612Z,0.00
2024-01-11T00:29:55.581Z,0.00
2024-01-11T00:30:55.677Z,0.00
2024-01-11T00:31:55.585Z,0.00
2024-01-11T00:32:55.646Z,0.00
2024-01-11T00:33:55.757Z,0.00
2024-01-11T00:34:55.570Z,0.00
2024-01-11T00:35:55.478Z,0.00
2024-01-11T00:36:55.514Z,0.00
2024-01-11T00:37:55.506Z,0.00
2024-01-11T00:38:55.489Z,0.00
2024-01-11T00:39:55.439Z,0.00
2024-01-11T00:40:55.479Z,0.00
2024-01-11T00:41:55.397Z,0.00
2024-01-11T00:42:55.456Z,0.00
2024-01-11T00:43:55.458Z,0.00
2024-01-11T00:44:55.430Z,0.00
2024-01-11T00:45:55.396Z,0.00
2024-01-11T00:46:55.414Z,0.00
2024-01-11T00:47:55.449Z,0.00
2024-01-11T00:48:56.853Z,0.00
2024-01-11T00:49:55.396Z,0.00
2024-01-11T00:50:55.342Z,0.00
2024-01-11T00:51:55.325Z,0.00
2024-01-11T00:52:55.360Z,0.00
2024-01-11T00:53:55.261Z,0.00
2024-01-11T00:54:55.286Z,0.00
2024-01-11T00:55:55.378Z,0.00
2024-01-11T00:56:55.268Z,0.00
2024-01-11T00:57:55.219Z,0.00
2024-01-11T00:58:55.273Z,0.00
2024-01-11T00:59:56.169Z,0.00
2024-01-11T01:00:55.269Z,0.00
2024-01-11T01:01:55.243Z,0.00
2024-01-11T01:02:55.164Z,0.00
2024-01-11T01:03:55.196Z,0.00
2024-01-11T01:04:55.192Z,0.00
2024-01-11T01:05:55.296Z,0.00
2024-01-11T01:06:55.135Z,0.00
2024-01-11T01:07:55.698Z,0.00
2024-01-11T01:08:55.126Z,0.00
2024-01-11T01:09:55.051Z,0.00
2024-01-11T01:10:55.162Z,0.00
2024-01-11T01:11:55.057Z,0.00
2024-01-11T01:12:55.060Z,0.00
2024-01-11T01:13:55.042Z,0.00
2024-01-11T01:14:55.140Z,0.00
2024-01-11T01:15:55.671Z,0.00
2024-01-11T01:16:55.053Z,0.00
2024-01-11T01:17:55.144Z,0.00
2024-01-11T01:18:55.080Z,0.00
2024-01-11T01:19:54.989Z,0.00
2024-01-11T01:20:54.996Z,0.00
2024-01-11T01:21:55.001Z,0.00
2024-01-11T01:22:54.973Z,0.00
2024-01-11T01:23:55.480Z,0.00
2024-01-11T01:24:54.968Z,0.00
2024-01-11T01:25:54.954Z,0.00
2024-01-11T01:26:54.909Z,0.00
2024-01-11T01:27:54.834Z,0.00
2024-01-11T01:28:54.895Z,0.00
2024-01-11T01:29:54.833Z,0.00
2024-01-11T01:30:54.877Z,0.00
2024-01-11T01:31:54.803Z,0.00
2024-01-11T01:32:54.999Z,0.00
2024-01-11T01:33:54.840Z,0.00
2024-01-11T01:34:54.968Z,0.00
2024-01-11T01:35:54.735Z,0.00
2024-01-11T01:36:54.788Z,0.00
2024-01-11T01:37:54.768Z,0.00
2024-01-11T01:38:54.720Z,0.00
2024-01-11T01:39:54.698Z,0.00
2024-01-11T01:40:54.760Z,0.00
2024-01-11T01:41:54.720Z,0.00
2024-01-11T01:42:54.671Z,0.00
2024-01-11T01:43:54.690Z,0.00
2024-01-11T01:44:54.655Z,0.00
2024-01-11T01:45:54.613Z,0.00
2024-01-11T01:46:54.708Z,0.00
2024-01-11T01:47:54.669Z,0.00
2024-01-11T01:48:54.661Z,0.00
2024-01-11T01:49:54.643Z,0.00
2024-01-11T01:50:54.593Z,0.00
2024-01-11T01:51:54.551Z,0.00
2024-01-11T01:52:54.615Z,0.00
2024-01-11T01:53:54.540Z,0.00
2024-01-11T01:54:54.515Z,0.00
2024-01-11T01:55:54.528Z,0.00
2024-01-11T01:56:54.506Z,0.00
2024-01-11T01:57:54.503Z,0.00
2024-01-11T01:58:54.543Z,0.00
2024-01-11T01:59:54.461Z,0.00
2024-01-11T02:00:54.503Z,0.00
2024-01-11T02:01:54.468Z,0.00
2024-01-11T02:02:54.537Z,0.00
2024-01-11T02:03:54.431Z,0.00
2024-01-11T02:04:54.506Z,0.00
2024-01-11T02:05:54.430Z,0.00
2024-01-11T02:06:54.418Z,0.00
2024-01-11T02:07:54.397Z,0.00
2024-01-11T02:08:54.356Z,0.00
2024-01-11T02:09:54.337Z,0.00
2024-01-11T02:10:54.390Z,0.00
2024-01-11T02:11:54.303Z,0.00
2024-01-11T02:12:54.325Z,0.00
2024-01-11T02:13:54.339Z,0.00
2024-01-11T02:14:54.294Z,0.00
2024-01-11T02:15:54.234Z,0.00
2024-01-11T02:16:54.352Z,0.00
2024-01-11T02:17:54.318Z,0.00
2024-01-11T02:18:54.273Z,0.00
2024-01-11T02:19:54.238Z,0.00
2024-01-11T02:20:54.224Z,0.00
2024-01-11T02:21:54.192Z,0.00
2024-01-11T02:22:54.264Z,0.00
2024-01-11T02:23:54.149Z,0.00
2024-01-11T02:24:54.204Z,0.00
2024-01-11T02:25:54.157Z,0.00
2024-01-11T02:26:54.157Z,0.00
2024-01-11T02:27:54.125Z,0.00
2024-01-11T02:28:55.013Z,0.00
2024-01-11T02:29:54.090Z,0.00
2024-01-11T02:30:54.155Z,0.00
2024-01-11T02:31:54.067Z,0.00
2024-01-11T02:32:54.339Z,0.00
2024-01-11T02:33:54.128Z,0.00
2024-01-11T02:34:54.050Z,0.00
2024-01-11T02:35:54.147Z,0.00
2024-01-11T02:36:54.020Z,0.00
2024-01-11T02:37:54.037Z,0.00
2024-01-11T02:38:53.978Z,0.00
2024-01-11T02:39:53.941Z,0.00
2024-01-11T02:40:53.983Z,0.00
2024-01-11T02:41:53.968Z,0.00
2024-01-11T02:42:53.984Z,0.00
2024-01-11T02:43:53.956Z,0.00
2024-01-11T02:44:53.913Z,0.00
2024-01-11T02:45:53.871Z,0.00
2024-01-11T02:46:53.964Z,0.00
2024-01-11T02:47:54.019Z,0.00
2024-01-11T02:48:54.082Z,0.00
2024-01-11T02:49:53.858Z,0.00
2024-01-11T02:50:53.944Z,0.00
2024-01-11T02:51:53.803Z,0.00
2024-01-11T02:52:53.884Z,0.00
2024-01-11T02:53:53.778Z,0.00
2024-01-11T02:54:53.798Z,0.00
2024-01-11T02:55:53.790Z,0.00
2024-01-11T02:56:53.886Z,0.00
2024-01-11T02:57:53.749Z,0.00
2024-01-11T02:58:53.738Z,0.00
2024-01-11T02:59:53.729Z,0.00
2024-01-11T03:00:53.755Z,0.00
2024-01-11T03:01:53.723Z,0.00
2024-01-11T03:02:53.691Z,0.00
2024-01-11T03:03:53.699Z,0.00
2024-01-11T03:04:53.696Z,0.00
2024-01-11T03:05:53.760Z,0.00
2024-01-11T03:06:53.666Z,0.00
2024-01-11T03:07:53.686Z,0.00
2024-01-11T03:08:53.620Z,0.00
2024-01-11T03:09:54.593Z,0.00
2024-01-11T03:10:53.675Z,0.00
2024-01-11T03:11:53.601Z,0.00
2024-01-11T03:12:53.559Z,0.00
2024-01-11T03:13:53.653Z,0.00
2024-01-11T03:14:53.494Z,0.00
2024-01-11T03:15:53.511Z,0.00
2024-01-11T03:16:53.514Z,0.00
2024-01-11T03:17:53.735Z,0.00
2024-01-11T03:18:53.564Z,0.00
2024-01-11T03:19:53.536Z,0.00
2024-01-11T03:20:53.477Z,0.00
2024-01-11T03:21:53.457Z,0.00
2024-01-11T03:22:53.428Z,0.00
2024-01-11T03:23:53.406Z,0.00
2024-01-11T03:24:53.472Z,0.00
2024-01-11T03:25:53.407Z,0.00
2024-01-11T03:26:53.358Z,0.00
2024-01-11T03:27:53.378Z,0.00
2024-01-11T03:28:53.363Z,0.00
2024-01-11T03:29:53.419Z,0.00
2024-01-11T03:30:53.364Z,0.00
2024-01-11T03:31:53.308Z,0.00
2024-01-11T03:32:53.445Z,0.00
2024-01-11T03:33:53.446Z,0.00
2024-01-11T03:34:53.255Z,0.00
2024-01-11T03:35:53.303Z,0.00
2024-01-11T03:36:53.279Z,0.00
2024-01-11T03:37:53.246Z,0.00
2024-01-11T03:38:53.272Z,0.00
2024-01-11T03:39:53.232Z,0.00
2024-01-11T03:40:53.185Z,0.00
2024-01-11T03:41:53.210Z,0.00
2024-01-11T03:42:53.161Z,0.00
2024-01-11T03:43:53.185Z,0.00
2024-01-11T03:44:53.122Z,0.00
2024-01-11T03:45:53.139Z,0.00
2024-01-11T03:46:53.127Z,0.00
2024-01-11T03:47:53.178Z,0.00
2024-01-11T03:48:53.202Z,0.00
2024-01-11T03:49:53.096Z,0.00
2024-01-11T03:50:53.037Z,0.00
2024-01-11T03:51:53.065Z,0.00
2024-01-11T03:52:53.049Z,0.00
2024-01-11T03:53:53.110Z,0.00
2024-01-11T03:54:52.998Z,0.00
2024-01-11T03:55:53.001Z,0.00
2024-01-11T03:56:53.007Z,0.00
2024-01-11T03:57:53.009Z,0.00
2024-01-11T03:58:52.957Z,0.00
2024-01-11T03:59:52.987Z,0.00
2024-01-11T04:00:52.986Z,0.00
2024-01-11T04:01:52.978Z,0.00
2024-01-11T04:02:53.164Z,0.00
2024-01-11T04:03:52.961Z,0.00
2024-01-11T04:04:52.909Z,0.00
2024-01-11T04:05:53.001Z,0.00
2024-01-11T04:06:52.866Z,0.00
2024-01-11T04:07:52.888Z,0.00
2024-01-11T04:08:52.851Z,0.00
2024-01-11T04:09:52.843Z,0.00
2024-01-11T04:10:52.831Z,0.00
2024-01-11T04:11:52.832Z,0.00
2024-01-11T04:12:52.823Z,0.00
2024-01-11T04:13:52.786Z,0.00
2024-01-11T04:14:52.776Z,0.00
2024-01-11T04:15:52.758Z,0.00
2024-01-11T04:16:52.716Z,0.00
2024-01-11T04:17:52.882Z,0.00
2024-01-11T04:18:52.735Z,0.00
2024-01-11T04:19:52.718Z,0.00
2024-01-11T04:20:52.684Z,0.00
2024-01-11T04:21:52.751Z,0.00
2024-01-11T04:22:52.653Z,0.00
2024-01-11T04:23:52.690Z,0.00
2024-01-11T04:24:52.647Z,0.00
2024-01-11T04:25:52.644Z,0.00
2024-01-11T04:26:52.623Z,0.00
2024-01-11T04:27:52.635Z,0.00
2024-01-11T04:28:52.604Z,0.00
2024-01-11T04:29:52.638Z,0.00
2024-01-11T04:30:52.626Z,0.00
2024-01-11T04:31:53.113Z,0.00
2024-01-11T04:32:52.591Z,0.00
2024-01-11T04:33:52.678Z,0.00
2024-01-11T04:34:52.496Z,0.00
2024-01-11T04:35:52.583Z,0.00
2024-01-11T04:36:52.550Z,0.00
2024-01-11T04:37:52.522Z,0.00
2024-01-11T04:38:52.474Z,0.00
2024-01-11T04:39:52.476Z,0.00
2024-01-11T04:40:52.439Z,0.00
2024-01-11T04:41:52.454Z,0.00
2024-01-11T04:42:52.434Z,0.00
2024-01-11T04:43:52.438Z,0.00
2024-01-11T04:44:52.441Z,0.00
2024-01-11T04:45:52.380Z,0.00
2024-01-11T04:46:52.395Z,0.00
2024-01-11T04:47:52.497Z,0.00
2024-01-11T04:48:52.464Z,0.00
2024-01-11T04:49:52.358Z,0.00
2024-01-11T04:50:52.403Z,0.00
2024-01-11T04:51:52.339Z,0.00
2024-01-11T04:52:52.283Z,0.00
2024-01-11T04:53:52.335Z,0.00
2024-01-11T04:54:52.256Z,0.00
2024-01-11T04:55:52.254Z,0.00
2024-01-11T04:56:52.245Z,0.00
2024-01-11T04:57:52.253Z,0.00
2024-01-11T04:58:52.203Z,0.00
2024-01-11T04:59:52.214Z,0.00
2024-01-11T05:00:52.237Z,0.00
2024-01-11T05:01:52.193Z,0.00
2024-01-11T05:02:52.213Z,0.00
2024-01-11T05:03:52.249Z,0.00
2024-01-11T05:04:52.129Z,0.00
2024-01-11T05:05:52.232Z,0.00
2024-01-11T05:06:52.168Z,0.00
2024-01-11T05:07:52.132Z,0.00
2024-01-11T05:08:52.080Z,0.00
2024-01-11T05:09:52.145Z,0.00
2024-01-11T05:10:52.078Z,0.00
2024-01-11T05:11:52.108Z,0.00
2024-01-11T05:12:52.034Z,0.00
2024-01-11T05:13:52.035Z,0.00
2024-01-11T05:14:52.061Z,0.00
2024-01-11T05:15:52.046Z,0.00
2024-01-11T05:16:51.974Z,0.00
2024-01-11T05:17:52.295Z,0.00
2024-01-11T05:18:52.138Z,0.00
2024-01-11T05:19:51.966Z,0.00
2024-01-11T05:20:51.974Z,0.00
2024-01-11T05:21:51.954Z,0.00
2024-01-11T05:22:51.930Z,0.00
2024-01-11T05:23:51.913Z,0.00
2024-01-11T05:24:51.901Z,0.00
2024-01-11T05:25:51.889Z,0.00
2024-01-11T05:26:51.908Z,0.00
2024-01-11T05:27:51.885Z,0.00
2024-01-11T05:28:51.843Z,0.00
2024-01-11T05:29:51.854Z,0.00
2024-01-11T05:30:51.876Z,0.00
2024-01-11T05:31:51.964Z,0.00
2024-01-11T05:32:51.870Z,0.00
2024-01-11T05:33:51.886Z,0.00
2024-01-11T05:34:51.786Z,0.00
2024-01-11T05:35:51.772Z,0.00
2024-01-11T05:36:51.753Z,0.00
2024-01-11T05:37:51.764Z,0.00
2024-01-11T05:38:51.703Z,0.00
2024-01-11T05:39:51.783Z,0.00
2024-01-11T05:40:51.677Z,0.00
2024-01-11T05:41:51.707Z,0.00
2024-01-11T05:42:51.669Z,0.00
2024-01-11T05:43:51.679Z,0.00
2024-01-11T05:44:51.670Z,0.00
2024-01-11T05:45:51.661Z,0.00
2024-01-11T05:46:51.607Z,0.00
2024-01-11T05:47:51.713Z,0.00
2024-01-11T05:48:51.761Z,0.00
2024-01-11T05:49:51.616Z,0.00
2024-01-11T05:50:51.583Z,0.00
2024-01-11T05:51:51.586Z,0.00
2024-01-11T05:52:51.541Z,0.00
2024-01-11T05:53:51.541Z,0.00
2024-01-11T05:54:51.554Z,0.00
2024-01-11T05:55:53.701Z,0.00
2024-01-11T05:56:51.482Z,0.00
2024-01-11T05:57:51.512Z,0.00
2024-01-11T05:58:51.477Z,0.00
2024-01-11T05:59:51.492Z,0.00
2024-01-11T06:00:51.494Z,0.00
2024-01-11T06:01:51.451Z,0.00
2024-01-11T06:02:51.405Z,0.00
2024-01-11T06:03:51.543Z,0.00
2024-01-11T06:04:51.388Z,0.00
2024-01-11T06:05:51.518Z,0.00
2024-01-11T06:06:51.386Z,0.00
2024-01-11T06:07:51.419Z,0.00
2024-01-11T06:08:51.345Z,0.00
2024-01-11T06:09:51.349Z,0.00
2024-01-11T06:10:51.304Z,0.00
2024-01-11T06:11:51.343Z,0.00
2024-01-11T06:12:51.305Z,0.00
2024-01-11T06:13:51.298Z,0.00
2024-01-11T06:14:51.256Z,0.00
2024-01-11T06:15:51.278Z,0.00
2024-01-11T06:16:51.271Z,0.00
2024-01-11T06:17:51.420Z,0.00
2024-01-11T06:18:51.310Z,0.00
2024-01-11T06:19:51.244Z,0.00
2024-01-11T06:20:51.237Z,0.00
2024-01-11T06:21:51.252Z,0.00
2024-01-11T06:22:51.177Z,0.00
2024-01-11T06:23:51.228Z,0.00
2024-01-11T06:24:51.150Z,0.00
2024-01-11T06:25:51.172Z,0.00
2024-01-11T06:26:51.120Z,0.00
2024-01-11T06:27:51.147Z,0.00
2024-01-11T06:28:51.085Z,0.00
2024-01-11T06:29:51.110Z,0.00
2024-01-11T06:30:51.187Z,0.00
2024-01-11T06:31:51.110Z,0.00
2024-01-11T06:32:51.157Z,0.00
2024-01-11T06:33:51.715Z,0.00
2024-01-11T06:34:51.095Z,0.00
2024-01-11T06:35:51.109Z,0.00
2024-01-11T06:36:51.021Z,0.00
2024-01-11T06:37:50.997Z,0.00
2024-01-11T06:38:51.016Z,0.00
2024-01-11T06:39:51.028Z,0.00
2024-01-11T06:40:51.009Z,0.00
2024-01-11T06:41:50.952Z,0.00
2024-01-11T06:42:50.930Z,0.00
2024-01-11T06:43:50.906Z,0.00
2024-01-11T06:44:51.042Z,0.00
2024-01-11T06:45:50.947Z,0.00
2024-01-11T06:46:50.841Z,0.00
2024-01-11T06:47:51.077Z,0.00
2024-01-11T06:48:50.997Z,0.00
2024-01-11T06:49:51.597Z,0.00
2024-01-11T06:50:50.893Z,0.00
2024-01-11T06:51:50.869Z,0.00
2024-01-11T06:52:50.793Z,0.00
2024-01-11T06:53:50.828Z,4.00
2024-01-11T06:54:50.753Z,0.00
2024-01-11T06:55:50.813Z,0.00
2024-01-11T06:56:50.806Z,0.00
2024-01-11T06:57:50.746Z,0.00
2024-01-11T06:58:50.742Z,4.00
2024-01-11T06:59:50.743Z,0.00
2024-01-11T07:00:50.737Z,0.00
2024-01-11T07:01:50.686Z,4.00
2024-01-11T07:02:50.783Z,4.00
2024-01-11T07:03:50.727Z,0.00
2024-01-11T07:04:50.674Z,4.00
2024-01-11T07:05:50.761Z,0.00
2024-01-11T07:06:50.629Z,4.00
2024-01-11T07:07:50.661Z,0.00
2024-01-11T07:08:50.919Z,4.00
2024-01-11T07:09:50.585Z,4.00
2024-01-11T07:10:51.996Z,4.00
2024-01-11T07:11:50.663Z,8.00
2024-01-11T07:12:50.552Z,4.00
2024-01-11T07:13:50.562Z,8.00
2024-01-11T07:14:50.661Z,8.00
2024-01-11T07:15:50.680Z,8.00
2024-01-11T07:16:50.516Z,8.00
2024-01-11T07:17:50.590Z,12.00
2024-01-11T07:18:50.581Z,8.00
2024-01-11T07:19:50.458Z,8.00
2024-01-11T07:20:50.556Z,12.00
2024-01-11T07:21:50.412Z,12.00
2024-01-11T07:22:50.485Z,12.00
2024-01-11T07:23:50.440Z,12.00
2024-01-11T07:24:50.411Z,16.00
2024-01-11T07:25:50.417Z,16.00
2024-01-11T07:26:50.689Z,16.00
2024-01-11T07:27:50.514Z,16.00
2024-01-11T07:28:50.356Z,20.00
2024-01-11T07:29:50.373Z,20.00
2024-01-11T07:30:50.398Z,24.00
2024-01-11T07:31:50.304Z,24.00
2024-01-11T07:32:50.657Z,24.00
2024-01-11T07:33:50.461Z,24.00
2024-01-11T07:34:50.285Z,28.00
2024-01-11T07:35:50.246Z,28.00
2024-01-11T07:36:50.289Z,28.00
2024-01-11T07:37:50.263Z,32.00
2024-01-11T07:38:50.307Z,32.00
2024-01-11T07:39:50.215Z,36.00
2024-01-11T07:40:50.216Z,36.00
2024-01-11T07:41:50.193Z,40.00
2024-01-11T07:42:50.196Z,40.00
2024-01-11T07:43:54.411Z,44.00
2024-01-11T07:44:50.210Z,48.00
2024-01-11T07:45:50.136Z,48.00
2024-01-11T07:46:53.730Z,52.00
2024-01-11T07:47:50.185Z,52.00
2024-01-11T07:48:50.919Z,52.00
2024-01-11T07:49:50.117Z,60.00
2024-01-11T07:50:50.130Z,60.00
2024-01-11T07:51:50.222Z,60.00
2024-01-11T07:52:50.075Z,64.00
2024-01-11T07:53:50.038Z,68.00
2024-01-11T07:54:50.060Z,68.00
2024-01-11T07:55:50.022Z,72.00
2024-01-11T07:56:50.093Z,72.00
2024-01-11T07:57:50.035Z,76.00
2024-01-11T07:58:50.409Z,76.00
2024-01-11T07:59:50.046Z,84.00
2024-01-11T08:00:50.002Z,84.00
2024-01-11T08:01:49.941Z,88.00
2024-01-11T08:02:50.060Z,92.00
2024-01-11T08:03:49.970Z,96.00
2024-01-11T08:04:50.066Z,96.00
2024-01-11T08:05:49.967Z,100.00
2024-01-11T08:06:49.923Z,104.00
2024-01-11T08:07:49.849Z,108.00
2024-01-11T08:08:49.987Z,108.00
2024-01-11T08:09:49.839Z,112.00
2024-01-11T08:10:49.822Z,116.00
2024-01-11T08:11:51.406Z,116.00
2024-01-11T08:12:49.820Z,120.00
2024-01-11T08:13:49.778Z,128.00
2024-01-11T08:14:49.809Z,128.00
2024-01-11T08:15:49.739Z,128.00
2024-01-11T08:16:49.781Z,132.00
2024-01-11T08:17:49.855Z,132.00
2024-01-11T08:18:49.892Z,132.00
2024-01-11T08:19:49.716Z,136.00
2024-01-11T08:20:49.891Z,140.00
2024-01-11T08:21:49.652Z,144.00
2024-01-11T08:22:49.710Z,148.00
2024-01-11T08:23:49.774Z,152.00
2024-01-11T08:24:49.669Z,160.00
2024-01-11T08:25:49.634Z,156.00
2024-01-11T08:26:49.765Z,160.00
2024-01-11T08:27:49.600Z,156.00
2024-01-11T08:28:49.626Z,164.00
2024-01-11T08:29:49.606Z,168.00
2024-01-11T08:30:49.699Z,168.00
2024-01-11T08:31:49.547Z,172.00
2024-01-11T08:32:49.666Z,180.00
2024-01-11T08:33:49.703Z,176.00
2024-01-11T08:34:49.623Z,180.00
2024-01-11T08:35:49.572Z,188.00
2024-01-11T08:36:49.522Z,188.00
2024-01-11T08:37:49.462Z,196.00
2024-01-11T08:38:49.658Z,192.00
2024-01-11T08:39:49.487Z,196.00
2024-01-11T08:40:49.493Z,200.00
2024-01-11T08:41:49.450Z,204.00
2024-01-11T08:42:49.440Z,208.00
2024-01-11T08:43:49.412Z,220.00
2024-01-11T08:44:49.505Z,224.00
2024-01-11T08:45:49.386Z,228.00
2024-01-11T08:46:49.423Z,240.00
2024-01-11T08:47:49.497Z,248.00
2024-01-11T08:48:49.528Z,264.00
2024-01-11T08:49:49.369Z,280.00
2024-01-11T08:50:49.534Z,308.00
2024-01-11T08:51:49.358Z,348.00
2024-01-11T08:52:49.318Z,428.00
2024-01-11T08:53:49.468Z,508.00
2024-01-11T08:54:49.303Z,608.00
2024-01-11T08:55:49.286Z,704.00
2024-01-11T08:56:49.367Z,720.00
2024-01-11T08:57:49.292Z,800.00
2024-01-11T08:58:49.254Z,1068.00
2024-01-11T08:59:49.261Z,1228.00
2024-01-11T09:00:49.362Z,1228.00
2024-01-11T09:01:57.358Z,1116.00
2024-01-11T09:02:49.660Z,1136.00
2024-01-11T09:03:49.549Z,1060.00
2024-01-11T09:04:49.177Z,1064.00
2024-01-11T09:05:49.412Z,1288.00
2024-01-11T09:06:49.175Z,1540.00
2024-01-11T09:07:50.963Z,1788.00
2024-01-11T09:08:49.170Z,1424.00
2024-01-11T09:09:54.303Z,1460.00
2024-01-11T09:10:49.086Z,2124.00
2024-01-11T09:11:49.097Z,2244.00
2024-01-11T09:12:49.066Z,2316.00
2024-01-11T09:13:49.067Z,1940.00
2024-01-11T09:14:49.101Z,2724.00
2024-01-11T09:15:49.012Z,4260.00
2024-01-11T09:16:49.011Z,4968.00
2024-01-11T09:17:49.072Z,5480.00
2024-01-11T09:18:49.032Z,5988.00
2024-01-11T09:19:49.048Z,5548.00
2024-01-11T09:20:49.001Z,3908.00
2024-01-11T09:21:48.932Z,5116.00
2024-01-11T09:22:48.940Z,5508.00
2024-01-11T09:23:48.946Z,7712.00
2024-01-11T09:24:48.945Z,8188.00
2024-01-11T09:25:48.883Z,5084.00
2024-01-11T09:26:48.934Z,3880.00
2024-01-11T09:27:48.859Z,4676.00
2024-01-11T09:28:48.867Z,7496.00
2024-01-11T09:29:50.037Z,10012.00
2024-01-11T09:30:48.865Z,11136.00
2024-01-11T09:31:48.808Z,9100.00
2024-01-11T09:32:49.119Z,8264.00
2024-01-11T09:33:48.855Z,7692.00
2024-01-11T09:34:48.807Z,7588.00
2024-01-11T09:35:48.764Z,11168.00
2024-01-11T09:36:48.754Z,11360.00
2024-01-11T09:37:48.715Z,7772.00
2024-01-11T09:38:48.813Z,7224.00
2024-01-11T09:39:48.723Z,7024.00
2024-01-11T09:40:48.718Z,7072.00
2024-01-11T09:41:48.676Z,9624.00
2024-01-11T09:42:48.695Z,11904.00
2024-01-11T09:43:48.641Z,9280.00
2024-01-11T09:44:48.697Z,7748.00
2024-01-11T09:45:48.621Z,8136.00
2024-01-11T09:46:48.658Z,8320.00
2024-01-11T09:47:48.629Z,9440.00
2024-01-11T09:48:48.643Z,10720.00
2024-01-11T09:49:48.583Z,9952.00
2024-01-11T09:50:48.689Z,9632.00
2024-01-11T09:51:48.567Z,10368.00
2024-01-11T09:52:48.587Z,9664.00
2024-01-11T09:53:48.538Z,9344.00
2024-01-11T09:54:48.567Z,9568.00
2024-01-11T09:55:48.482Z,9984.00
2024-01-11T09:56:48.578Z,10336.00
2024-01-11T09:57:48.466Z,10304.00
2024-01-11T09:58:48.474Z,10272.00
2024-01-11T09:59:48.521Z,8236.00
2024-01-11T10:00:48.434Z,7348.00
2024-01-11T10:01:48.441Z,12908.00
2024-01-11T10:02:48.666Z,8768.00
2024-01-11T10:03:48.435Z,8488.00
2024-01-11T10:04:48.407Z,8484.00
2024-01-11T10:05:48.376Z,8960.00
2024-01-11T10:06:48.393Z,8476.00
2024-01-11T10:07:48.362Z,8440.00
2024-01-11T10:08:48.397Z,8060.00
2024-01-11T10:09:48.328Z,8252.00
2024-01-11T10:10:48.307Z,6844.00
2024-01-11T10:11:48.351Z,6576.00
2024-01-11T10:12:48.326Z,9380.00
2024-01-11T10:13:48.280Z,10240.00
2024-01-11T10:14:48.337Z,10560.00
2024-01-11T10:15:48.242Z,9616.00
2024-01-11T10:16:48.250Z,11072.00
2024-01-11T10:17:48.499Z,8500.00
2024-01-11T10:18:48.405Z,10656.00
2024-01-11T10:19:48.331Z,6116.00
2024-01-11T10:20:48.321Z,10400.00
2024-01-11T10:21:48.146Z,7468.00
2024-01-11T10:22:48.173Z,9100.00
2024-01-11T10:23:48.200Z,3880.00
2024-01-11T10:24:48.130Z,1520.00
2024-01-11T10:25:48.110Z,424.00
2024-01-11T10:26:48.229Z,364.00
2024-01-11T10:27:48.067Z,352.00
2024-01-11T10:28:48.113Z,352.00
2024-01-11T10:29:48.083Z,344.00
2024-01-11T10:30:48.080Z,344.00
2024-01-11T10:31:48.065Z,336.00
2024-01-11T10:32:48.195Z,340.00
2024-01-11T10:33:48.066Z,344.00
2024-01-11T10:34:47.997Z,328.00
2024-01-11T10:35:48.088Z,344.00
2024-01-11T10:36:47.962Z,340.00
2024-01-11T10:37:47.980Z,336.00
2024-01-11T10:38:48.015Z,332.00
2024-01-11T10:39:47.962Z,328.00
2024-01-11T10:40:47.971Z,324.00
2024-01-11T10:41:47.900Z,316.00
2024-01-11T10:42:47.867Z,324.00
2024-01-11T10:43:47.915Z,328.00
2024-01-11T10:44:47.892Z,324.00
2024-01-11T10:45:47.865Z,316.00
2024-01-11T10:46:47.850Z,328.00
2024-01-11T10:47:47.917Z,328.00
2024-01-11T10:48:47.849Z,332.00
2024-01-11T10:49:47.821Z,316.00
2024-01-11T10:50:47.961Z,320.00
2024-01-11T10:51:47.790Z,312.00
2024-01-11T10:52:47.786Z,316.00
2024-01-11T10:53:47.893Z,304.00
2024-01-11T10:54:47.729Z,304.00
2024-01-11T10:55:47.752Z,300.00
2024-01-11T10:56:47.734Z,304.00
2024-01-11T10:57:48.196Z,304.00
2024-01-11T10:58:48.089Z,296.00
2024-01-11T10:59:47.838Z,296.00
2024-01-11T11:00:47.744Z,292.00
2024-01-11T11:01:47.722Z,300.00
2024-01-11T11:02:47.713Z,300.00
2024-01-11T11:03:47.668Z,296.00
2024-01-11T11:04:47.626Z,284.00
2024-01-11T11:05:47.866Z,280.00
2024-01-11T11:06:47.610Z,280.00
2024-01-11T11:07:47.578Z,288.00
2024-01-11T11:08:47.589Z,292.00
2024-01-11T11:09:47.544Z,284.00
2024-01-11T11:10:47.536Z,284.00
2024-01-11T11:11:47.567Z,284.00
2024-01-11T11:12:47.519Z,280.00
2024-01-11T11:13:47.533Z,280.00
2024-01-11T11:14:47.545Z,276.00
2024-01-11T11:15:47.480Z,268.00
2024-01-11T11:16:47.446Z,268.00
2024-01-11T11:17:47.532Z,276.00
2024-01-11T11:18:47.505Z,268.00
2024-01-11T11:19:47.401Z,264.00
2024-01-11T11:20:47.452Z,268.00
2024-01-11T11:21:47.445Z,252.00
2024-01-11T11:22:47.362Z,252.00
2024-01-11T11:23:47.545Z,248.00
2024-01-11T11:24:47.389Z,244.00
2024-01-11T11:25:47.345Z,244.00
2024-01-11T11:26:47.410Z,244.00
2024-01-11T11:27:47.306Z,244.00
2024-01-11T11:28:47.306Z,244.00
2024-01-11T11:29:47.373Z,244.00
2024-01-11T11:30:47.355Z,244.00
2024-01-11T11:31:47.280Z,240.00
2024-01-11T11:32:47.336Z,244.00
2024-01-11T11:33:47.387Z,240.00
2024-01-11T11:34:47.198Z,240.00
2024-01-11T11:35:47.269Z,240.00
2024-01-11T11:36:47.230Z,236.00
2024-01-11T11:37:47.171Z,248.00
2024-01-11T11:38:47.204Z,232.00
2024-01-11T11:39:47.140Z,232.00
2024-01-11T11:40:47.160Z,232.00
2024-01-11T11:41:47.110Z,228.00
2024-01-11T11:42:47.142Z,228.00
2024-01-11T11:43:47.115Z,224.00
2024-01-11T11:44:47.127Z,220.00
2024-01-11T11:45:47.072Z,216.00
2024-01-11T11:46:47.118Z,224.00
2024-01-11T11:47:47.134Z,228.00
2024-01-11T11:48:47.172Z,228.00
2024-01-11T11:49:47.024Z,220.00
2024-01-11T11:50:47.095Z,212.00
2024-01-11T11:51:47.035Z,212.00
2024-01-11T11:52:47.113Z,208.00
2024-01-11T11:53:47.135Z,208.00
2024-01-11T11:54:46.972Z,208.00
2024-01-11T11:55:46.931Z,212.00
2024-01-11T11:56:47.002Z,208.00
2024-01-11T11:57:46.931Z,200.00
2024-01-11T11:58:46.935Z,200.00
2024-01-11T11:59:46.913Z,200.00
2024-01-11T12:00:46.942Z,204.00
2024-01-11T12:01:46.882Z,196.00
2024-01-11T12:02:46.986Z,192.00
2024-01-11T12:03:46.866Z,192.00
2024-01-11T12:04:46.908Z,196.00
2024-01-11T12:05:46.889Z,192.00
2024-01-11T12:06:46.978Z,188.00
2024-01-11T12:07:46.802Z,188.00
2024-01-11T12:08:46.897Z,188.00
2024-01-11T12:09:46.768Z,188.00
2024-01-11T12:10:46.799Z,180.00
2024-01-11T12:11:51.989Z,180.00
2024-01-11T12:12:46.836Z,180.00
2024-01-11T12:13:46.709Z,176.00
2024-01-11T12:14:46.744Z,176.00
2024-01-11T12:15:46.681Z,176.00
2024-01-11T12:16:46.692Z,180.00
2024-01-11T12:17:46.875Z,172.00
2024-01-11T12:18:46.882Z,176.00
2024-01-11T12:19:46.630Z,168.00
2024-01-11T12:20:46.766Z,176.00
2024-01-11T12:21:46.601Z,172.00
2024-01-11T12:22:46.637Z,172.00
2024-01-11T12:23:46.643Z,172.00
2024-01-11T12:24:46.624Z,172.00
2024-01-11T12:25:46.561Z,164.00
2024-01-11T12:26:46.587Z,160.00
2024-01-11T12:27:46.511Z,168.00
2024-01-11T12:28:46.555Z,164.00
2024-01-11T12:29:53.142Z,164.00
2024-01-11T12:30:46.697Z,164.00
2024-01-11T12:31:46.465Z,156.00
2024-01-11T12:32:48.209Z,160.00
2024-01-11T12:33:46.550Z,152.00
2024-01-11T12:34:46.597Z,160.00
2024-01-11T12:35:46.603Z,156.00
2024-01-11T12:36:46.446Z,156.00
2024-01-11T12:37:46.390Z,152.00
2024-01-11T12:38:48.294Z,148.00
2024-01-11T12:39:46.429Z,152.00
2024-01-11T12:40:46.455Z,152.00
2024-01-11T12:41:46.452Z,148.00
2024-01-11T12:42:46.411Z,148.00
2024-01-11T12:43:46.348Z,148.00
2024-01-11T12:44:48.612Z,144.00
2024-01-11T12:45:46.422Z,140.00
2024-01-11T12:46:46.345Z,144.00
2024-01-11T12:47:46.469Z,144.00
2024-01-11T12:48:46.374Z,144.00
2024-01-11T12:49:46.244Z,144.00
2024-01-11T12:50:46.316Z,136.00
2024-01-11T12:51:46.213Z,136.00
2024-01-11T12:52:46.247Z,140.00
2024-01-11T12:53:46.280Z,132.00
2024-01-11T12:54:46.236Z,136.00